Clearfield, Kentucky
Current Conditions -  °F | °C
As of 1:10 AM on Thursday 23 Oct 2014 (Local Time) from KSYM Reporting Station
Overcast Overcast  
Wind Chill: 48°   Ceiling: 2600
Heat Index: 48°   Visibility: 10mi
Dew Point: 39°   Wind: 3mph
Humidity: 71%   Direction: 30°NNE
Pressure: 30.26"   Gusts: NA
Location:  38.16°N, 83.43°W
Report Text: KSYM 230510Z AUTO 03003KT 10SM OVC026 09/04 A3026 RMK AO2
Loading
Personal Weather Stations






























Interactive Weather Map
Tropical Storm Tracking
New forecast layout! Learn more

10-Day Weather Forecast

Advertisements
Track Severe Weather on mobile